LRCL/CLJ METAR and TAF weather

Enter ICAO airport designator
Station Type Date Time Source
LRCL METAR 2018/12/11 22:00 UTC NOAA

LRCL 112200Z VRB02KT 2000 PRFG FEW001 SCT015 BKN063 M03/M04 Q1015 R07/29//95


Station Type Date Time Source
LRCL Decoded METAR 2018/12/11 22:00 UTC NOAA

Cluj-Napoca, Romania (LRCL) 46-47N 023-34E 413M
Dec 11, 2018 - 05:00 PM EST / 2018.12.11 2200 UTC
Wind: Variable at 2 MPH (2 KT):0
Visibility: 1 mile(s):0
Sky conditions: mostly cloudy
Weather: partial fog
Temperature: 26 F (-3 C)
Dew Point: 24 F (-4 C)
Relative Humidity: 92%
Pressure (altimeter): 29.97 in. Hg (1015 hPa)
ob: LRCL 112200Z VRB02KT 2000 PRFG FEW001 SCT015 BKN063 M03/M04 Q1015 R07/29//95
cycle: 22

Station Type Date Time Source
LRCL TAF 2007/05/23 16:57 UTC NOAA

TAF
AMD LRCL 231657Z 231607 VRB02MPS 9999 SCT030 BKN080
TEMPO 1719 VRB15G20MPS 1500 TSRAGR SCT010 BKN020CB OVC080


Example: see airport list